Falls International, MN

11:11 AM CST on December 04, 2016 (GMT -0600)
Falls International | | Change Station

Elev 1181 ft 48.56 °N, 93.40 °W | Updated 9 minutes ago

Light Snow
Light Snow Mist
30 °F
Feels Like 22 °F
N
8
Wind Variable Wind from SE

Today
High -- | Low -- °F
--% Chance of Precip.
Yesterday
High -- | Low -- °F
Precip. -- in
Pressure 29.79 in
Visibility 0.8 miles
Clouds Mostly Cloudy 900 ft
Overcast 1700 ft
Windchill 22 °F
Dew Point 27 °F
Humidity 88%
Rainfall 0.09 in
Snow Depth Not available.
7:48 AM 4:19 PM
Waxing Crescent, 24% visible
SPECI KINL 041702Z AUTO 14007KT 3/4SM -SN BR BKN009 OVC017 M01/M03 A2979 RMK AO2 P0000 T10111028
Pressure 29.79 in
Visibility 0.8 miles
Clouds Mostly Cloudy 900 ft
Overcast 1700 ft
Windchill 22 °F
Dew Point 27 °F
Humidity 88%
Rainfall 0.09 in
Snow Depth Not available.
7:48 AM 4:19 PM
Waxing Crescent, 24% visible
SPECI KINL 041702Z AUTO 14007KT 3/4SM -SN BR BKN009 OVC017 M01/M03 A2979 RMK AO2 P0000 T10111028

10-Day Weather Forecast

Almanac

Astronomy

Dec. 04, 2016 Rise Set
Actual Time
Civil Twilight
Nautical Twilight
Astronomical Twilight
Moon
Length of Visible Light
Length of Day
Tomorrow will be .
, % of the Moon is Illuminated

Today's Extremes

State Highs State Lows

Community

WunderPhotos

Upload Photos

1,955,631 photos uploaded!

WunderBlog® & News

Nearby

Air Quality

  Air Quality AQ Index Pollutant
Not available.

Snow Depth

Station Depth Elevation

Earthquake Activity

City Distance Mag. Time & Date
Minimum magnitude displayed is 2.5.

Coastal Water Temperatures

Place Temperature

Stations

Nearby Weather Stations

Station Location Temp. Windchill Dew Point Humidity Wind Precip. Elev Updated Type
                   

Watches & Warnings

There are currently no watches in effect.